Time,TemperatureF,DewpointF,PressureIn,WindDirection,WindDirectionDegrees,WindSpeedMPH,WindSpeedGustMPH,Humidity,HourlyPrecipIn,Conditions,Clouds,dailyrainin,SoftwareType,DateUTC
2013-07-13 00:01:00,64.0,62.0,-100.00,East,95,6.0,7.0,92,0.00,,,-99.99,,2013-07-13 04:01:00,
2013-07-13 00:43:00,64.0,62.0,-100.00,NE,35,3.0,4.0,94,0.00,,,-99.99,,2013-07-13 04:43:00,
2013-07-13 01:11:00,63.0,62.0,-100.00,ENE,60,3.0,4.0,94,0.00,,,-99.99,,2013-07-13 05:11:00,
2013-07-13 01:22:00,63.0,62.0,-100.00,ENE,60,3.0,4.0,94,0.00,,,-99.99,,2013-07-13 05:22:00,
2013-07-13 01:32:00,62.0,61.0,-100.00,NNE,25,3.0,6.0,95,0.00,,,-99.99,,2013-07-13 05:32:00,
2013-07-13 01:42:00,62.0,61.0,-100.00,NNE,25,3.0,6.0,95,0.00,,,-99.99,,2013-07-13 05:42:00,
2013-07-13 02:02:00,62.0,61.0,-100.00,NNE,30,2.0,4.0,96,0.00,,,-99.99,,2013-07-13 06:02:00,
2013-07-13 03:02:00,60.0,59.0,-100.00,NE,45,4.0,4.0,96,0.00,,,-99.99,,2013-07-13 07:02:00,
2013-07-13 03:11:00,60.0,60.0,-100.00,NE,55,3.0,4.0,96,0.00,,,-99.99,,2013-07-13 07:11:00,
2013-07-13 03:33:00,60.0,59.0,-100.00,North,0,2.0,4.0,96,0.00,,,-99.99,,2013-07-13 07:33:00,
2013-07-13 03:44:00,60.0,59.0,-100.00,NNW,345,2.0,3.0,96,0.00,,,-99.99,,2013-07-13 07:44:00,
2013-07-13 03:53:00,60.0,59.0,-100.00,NNW,335,3.0,4.0,96,0.00,,,-99.99,,2013-07-13 07:53:00,
2013-07-13 04:02:00,61.0,60.0,-100.00,NNW,345,4.0,6.0,97,0.00,,,-99.99,,2013-07-13 08:02:00,
2013-07-13 04:12:00,61.0,60.0,-100.00,North,5,3.0,7.0,97,0.00,,,-99.99,,2013-07-13 08:12:00,
2013-07-13 04:22:00,61.0,60.0,-100.00,North,5,3.0,7.0,97,0.00,,,-99.99,,2013-07-13 08:22:00,
2013-07-13 04:33:00,61.0,60.0,-100.00,North,5,4.0,6.0,97,0.00,,,-99.99,,2013-07-13 08:33:00,
2013-07-13 04:43:00,61.0,60.0,-100.00,North,0,4.0,7.0,97,0.00,,,-99.99,,2013-07-13 08:43:00,
2013-07-13 04:52:00,61.0,60.0,-100.00,North,5,4.0,7.0,97,0.00,,,-99.99,,2013-07-13 08:52:00,
2013-07-13 05:02:00,61.0,60.0,-100.00,North,0,2.0,6.0,97,0.00,,,-99.99,,2013-07-13 09:02:00,
2013-07-13 05:11:00,61.0,60.0,-100.00,North,0,3.0,7.0,97,0.00,,,-99.99,,2013-07-13 09:11:00,
2013-07-13 05:22:00,61.0,60.0,-100.00,North,0,3.0,7.0,97,0.00,,,-99.99,,2013-07-13 09:22:00,
2013-07-13 05:33:00,61.0,60.0,-100.00,NNE,20,4.0,6.0,97,0.00,,,-99.99,,2013-07-13 09:33:00,
2013-07-13 05:43:00,61.0,60.0,-100.00,NNE,25,4.0,6.0,97,0.00,,,-99.99,,2013-07-13 09:43:00,
2013-07-13 06:01:00,61.0,60.0,-100.00,NNE,25,4.0,6.0,97,0.00,,,-99.99,,2013-07-13 10:01:00,
2013-07-13 06:32:00,61.0,60.0,-100.00,NNE,15,6.0,8.0,97,0.00,,,-99.99,,2013-07-13 10:32:00,
2013-07-13 06:52:00,61.0,60.0,-100.00,NNE,30,4.0,7.0,97,0.00,,,-99.99,,2013-07-13 10:52:00,
2013-07-13 07:22:00,62.0,61.0,-100.00,NE,50,4.0,6.0,97,0.00,,,-99.99,,2013-07-13 11:22:00,
2013-07-13 07:42:00,63.0,62.0,-100.00,NNE,25,6.0,8.0,97,0.00,,,-99.99,,2013-07-13 11:42:00,
2013-07-13 08:02:00,64.0,63.0,-100.00,NNE,30,6.0,7.0,97,0.00,,,-99.99,,2013-07-13 12:02:00,
2013-07-13 08:32:00,67.0,66.0,-100.00,NE,45,6.0,9.0,97,0.00,,,-99.99,,2013-07-13 12:32:00,
2013-07-13 08:43:00,67.0,66.0,-100.00,NE,45,6.0,9.0,97,0.00,,,-99.99,,2013-07-13 12:43:00,
2013-07-13 09:01:00,69.0,68.0,-100.00,ENE,60,6.0,10.0,96,0.00,,,-99.99,,2013-07-13 13:01:00,
2013-07-13 09:12:00,70.0,69.0,-100.00,ENE,65,8.0,11.0,96,0.00,,,-99.99,,2013-07-13 13:12:00,
2013-07-13 09:22:00,71.0,69.0,-100.00,ENE,75,8.0,12.0,94,0.00,,,-99.99,,2013-07-13 13:22:00,
2013-07-13 09:32:00,71.0,69.0,-100.00,ENE,60,9.0,11.0,92,0.00,,,-99.99,,2013-07-13 13:32:00,
2013-07-13 09:43:00,73.0,70.0,-100.00,East,85,7.0,11.0,88,0.00,,,-99.99,,2013-07-13 13:43:00,
2013-07-13 10:02:00,74.0,69.0,-100.00,ENE,65,8.0,11.0,86,0.00,,,-99.99,,2013-07-13 14:02:00,
2013-07-13 10:22:00,75.0,69.0,-100.00,East,85,10.0,12.0,83,0.00,,,-99.99,,2013-07-13 14:22:00,
2013-07-13 10:53:00,77.0,69.0,-100.00,ESE,110,6.0,12.0,78,0.00,,,-99.99,,2013-07-13 14:53:00,
2013-07-13 11:02:00,77.0,69.0,-100.00,East,90,7.0,11.0,76,0.00,,,-99.99,,2013-07-13 15:02:00,
2013-07-13 11:22:00,78.0,69.0,-100.00,ESE,110,6.0,11.0,73,0.00,,,-99.99,,2013-07-13 15:22:00,
2013-07-13 11:33:00,78.0,67.0,-100.00,East,80,9.0,13.0,68,0.00,,,-99.99,,2013-07-13 15:33:00,
2013-07-13 11:43:00,80.0,67.0,-100.00,East,90,9.0,13.0,65,0.00,,,-99.99,,2013-07-13 15:43:00,
2013-07-13 11:53:00,80.0,67.0,-100.00,East,90,9.0,13.0,65,0.00,,,-99.99,,2013-07-13 15:53:00,
2013-07-13 12:02:00,79.0,67.0,-100.00,East,85,9.0,14.0,67,0.00,,,-99.99,,2013-07-13 16:02:00,
2013-07-13 12:11:00,80.0,67.0,-100.00,East,100,9.0,12.0,64,0.00,,,-99.99,,2013-07-13 16:11:00,
2013-07-13 12:22:00,80.0,67.0,-100.00,East,100,9.0,12.0,64,0.00,,,-99.99,,2013-07-13 16:22:00,
2013-07-13 12:33:00,80.0,66.0,-100.00,NE,55,7.0,16.0,61,0.00,,,-99.99,,2013-07-13 16:33:00,
2013-07-13 12:43:00,80.0,66.0,-100.00,ENE,75,9.0,13.0,62,0.00,,,-99.99,,2013-07-13 16:43:00,
2013-07-13 12:53:00,79.0,65.0,-100.00,NE,55,7.0,15.0,60,0.00,,,-99.99,,2013-07-13 16:53:00,
2013-07-13 13:01:00,79.0,65.0,-100.00,NE,55,7.0,15.0,60,0.00,,,-99.99,,2013-07-13 17:01:00,
2013-07-13 13:12:00,79.0,65.0,-100.00,NE,55,7.0,15.0,60,0.00,,,-99.99,,2013-07-13 17:12:00,
2013-07-13 13:22:00,79.0,65.0,-100.00,NE,55,7.0,15.0,60,0.00,,,-99.99,,2013-07-13 17:22:00,
2013-07-13 13:33:00,81.0,66.0,-100.00,ESE,110,9.0,12.0,60,0.00,,,-99.99,,2013-07-13 17:33:00,
2013-07-13 13:43:00,81.0,66.0,-100.00,ESE,110,9.0,12.0,60,0.00,,,-99.99,,2013-07-13 17:43:00,
2013-07-13 13:52:00,82.0,66.0,-100.00,ESE,120,7.0,12.0,58,0.00,,,-99.99,,2013-07-13 17:52:00,
2013-07-13 14:01:00,82.0,66.0,-100.00,ESE,120,7.0,12.0,58,0.00,,,-99.99,,2013-07-13 18:01:00,
2013-07-13 14:11:00,82.0,66.0,-100.00,ESE,120,7.0,12.0,58,0.00,,,-99.99,,2013-07-13 18:11:00,
2013-07-13 14:22:00,83.0,66.0,-100.00,East,85,10.0,16.0,56,0.00,,,-99.99,,2013-07-13 18:22:00,
2013-07-13 14:32:00,82.0,66.0,-100.00,ENE,70,9.0,14.0,58,0.00,,,-99.99,,2013-07-13 18:32:00,
2013-07-13 14:44:00,83.0,67.0,-100.00,ESE,115,7.0,13.0,57,0.00,,,-99.99,,2013-07-13 18:44:00,
2013-07-13 14:53:00,83.0,66.0,-100.00,ENE,75,9.0,14.0,57,0.00,,,-99.99,,2013-07-13 18:53:00,
2013-07-13 15:02:00,84.0,67.0,-100.00,East,80,6.0,12.0,57,0.00,,,-99.99,,2013-07-13 19:02:00,
2013-07-13 15:11:00,83.0,66.0,-100.00,East,90,9.0,13.0,56,0.00,,,-99.99,,2013-07-13 19:11:00,
2013-07-13 15:22:00,83.0,66.0,-100.00,East,90,9.0,13.0,56,0.00,,,-99.99,,2013-07-13 19:22:00,
2013-07-13 15:32:00,83.0,66.0,-100.00,East,90,9.0,13.0,56,0.00,,,-99.99,,2013-07-13 19:32:00,
2013-07-13 15:44:00,82.0,66.0,-100.00,East,85,10.0,14.0,57,0.00,,,-99.99,,2013-07-13 19:44:00,
2013-07-13 15:52:00,83.0,66.0,-100.00,East,95,10.0,16.0,55,0.00,,,-99.99,,2013-07-13 19:52:00,
2013-07-13 16:01:00,83.0,67.0,-100.00,ENE,75,9.0,13.0,58,0.00,,,-99.99,,2013-07-13 20:01:00,
2013-07-13 16:11:00,83.0,67.0,-100.00,East,90,10.0,17.0,57,0.00,,,-99.99,,2013-07-13 20:11:00,
2013-07-13 16:22:00,84.0,66.0,-100.00,NE,45,11.0,14.0,55,0.00,,,-99.99,,2013-07-13 20:22:00,
2013-07-13 16:33:00,83.0,67.0,-100.00,ENE,75,9.0,12.0,57,0.00,,,-99.99,,2013-07-13 20:33:00,
2013-07-13 16:43:00,84.0,68.0,-100.00,East,85,11.0,14.0,57,0.00,,,-99.99,,2013-07-13 20:43:00,
2013-07-13 16:52:00,85.0,68.0,-100.00,East,95,10.0,12.0,58,0.00,,,-99.99,,2013-07-13 20:52:00,
2013-07-13 17:02:00,84.0,67.0,-100.00,East,100,12.0,15.0,58,0.00,,,-99.99,,2013-07-13 21:02:00,
2013-07-13 17:12:00,84.0,67.0,-100.00,ENE,70,11.0,14.0,57,0.00,,,-99.99,,2013-07-13 21:12:00,
2013-07-13 17:22:00,84.0,68.0,-100.00,East,85,7.0,14.0,58,0.00,,,-99.99,,2013-07-13 21:22:00,
2013-07-13 17:32:00,84.0,68.0,-100.00,East,85,7.0,14.0,58,0.00,,,-99.99,,2013-07-13 21:32:00,
2013-07-13 17:43:00,83.0,67.0,-100.00,East,80,10.0,17.0,59,0.00,,,-99.99,,2013-07-13 21:43:00,
2013-07-13 17:53:00,83.0,67.0,-100.00,ENE,65,9.0,13.0,58,0.00,,,-99.99,,2013-07-13 21:53:00,
2013-07-13 18:01:00,83.0,67.0,-100.00,ENE,65,9.0,13.0,58,0.00,,,-99.99,,2013-07-13 22:01:00,
2013-07-13 18:12:00,82.0,68.0,-100.00,East,95,10.0,14.0,61,0.00,,,-99.99,,2013-07-13 22:12:00,
2013-07-13 18:22:00,82.0,68.0,-100.00,East,95,10.0,14.0,61,0.00,,,-99.99,,2013-07-13 22:22:00,
2013-07-13 18:32:00,83.0,68.0,-100.00,ENE,65,11.0,16.0,61,0.00,,,-99.99,,2013-07-13 22:32:00,
2013-07-13 18:43:00,82.0,68.0,-100.00,ENE,60,10.0,15.0,61,0.00,,,-99.99,,2013-07-13 22:43:00,
2013-07-13 18:53:00,82.0,68.0,-100.00,ENE,75,10.0,12.0,61,0.00,,,-99.99,,2013-07-13 22:53:00,
2013-07-13 19:02:00,82.0,67.0,-100.00,East,80,10.0,12.0,62,0.00,,,-99.99,,2013-07-13 23:02:00,
2013-07-13 19:11:00,82.0,69.0,-100.00,East,80,8.0,12.0,63,0.00,,,-99.99,,2013-07-13 23:11:00,
2013-07-13 19:22:00,82.0,68.0,-100.00,East,80,9.0,12.0,64,0.00,,,-99.99,,2013-07-13 23:22:00,
2013-07-13 19:32:00,81.0,68.0,-100.00,East,90,10.0,13.0,65,0.00,,,-99.99,,2013-07-13 23:32:00,
2013-07-13 19:42:00,81.0,68.0,-100.00,ENE,60,11.0,14.0,65,0.00,,,-99.99,,2013-07-13 23:42:00,
2013-07-13 19:53:00,80.0,68.0,-100.00,East,80,10.0,15.0,66,0.00,,,-99.99,,2013-07-13 23:53:00,
2013-07-13 20:01:00,80.0,69.0,-100.00,East,90,9.0,13.0,68,0.00,,,-99.99,,2013-07-14 00:01:00,
2013-07-13 20:12:00,80.0,68.0,-100.00,ENE,70,9.0,12.0,68,0.00,,,-99.99,,2013-07-14 00:12:00,
2013-07-13 20:21:00,79.0,69.0,-100.00,ENE,70,9.0,12.0,69,0.00,,,-99.99,,2013-07-14 00:21:00,
2013-07-13 20:33:00,79.0,68.0,-100.00,ENE,75,10.0,12.0,70,0.00,,,-99.99,,2013-07-14 00:33:00,
2013-07-13 20:42:00,78.0,68.0,-100.00,ENE,70,9.0,12.0,71,0.00,,,-99.99,,2013-07-14 00:42:00,
2013-07-13 20:53:00,78.0,69.0,-100.00,ENE,70,7.0,10.0,74,0.00,,,-99.99,,2013-07-14 00:53:00,
2013-07-13 21:02:00,77.0,69.0,-100.00,ENE,75,8.0,10.0,76,0.00,,,-99.99,,2013-07-14 01:02:00,
2013-07-13 21:11:00,76.0,69.0,-100.00,ENE,75,7.0,10.0,78,0.00,,,-99.99,,2013-07-14 01:11:00,
2013-07-13 21:22:00,75.0,69.0,-100.00,East,85,7.0,8.0,82,0.00,,,-99.99,,2013-07-14 01:22:00,
2013-07-13 21:32:00,74.0,69.0,-100.00,East,80,7.0,9.0,84,0.00,,,-99.99,,2013-07-14 01:32:00,
2013-07-13 21:43:00,74.0,69.0,-100.00,ENE,75,7.0,10.0,86,0.00,,,-99.99,,2013-07-14 01:43:00,
2013-07-13 21:52:00,74.0,69.0,-100.00,ENE,75,7.0,10.0,86,0.00,,,-99.99,,2013-07-14 01:52:00,
2013-07-13 22:02:00,72.0,69.0,-100.00,East,80,7.0,9.0,90,0.00,,,-99.99,,2013-07-14 02:02:00,
2013-07-13 22:11:00,72.0,69.0,-100.00,East,85,7.0,9.0,90,0.00,,,-99.99,,2013-07-14 02:11:00,
2013-07-13 22:22:00,71.0,69.0,-100.00,East,80,6.0,7.0,91,0.00,,,-99.99,,2013-07-14 02:22:00,
2013-07-13 22:32:00,71.0,69.0,-100.00,East,80,6.0,7.0,91,0.00,,,-99.99,,2013-07-14 02:32:00,
2013-07-13 22:43:00,71.0,69.0,-100.00,ENE,75,8.0,10.0,92,0.00,,,-99.99,,2013-07-14 02:43:00,
2013-07-13 22:53:00,71.0,69.0,-100.00,East,85,6.0,9.0,92,0.00,,,-99.99,,2013-07-14 02:53:00,
2013-07-13 23:01:00,71.0,69.0,-100.00,ENE,75,6.0,7.0,92,0.00,,,-99.99,,2013-07-14 03:01:00,
2013-07-13 23:11:00,71.0,69.0,-100.00,ENE,75,6.0,7.0,92,0.00,,,-99.99,,2013-07-14 03:11:00,
2013-07-13 23:22:00,70.0,69.0,-100.00,East,80,7.0,10.0,94,0.00,,,-99.99,,2013-07-14 03:22:00,
2013-07-13 23:32:00,70.0,69.0,-100.00,East,80,7.0,10.0,94,0.00,,,-99.99,,2013-07-14 03:32:00,
2013-07-13 23:43:00,70.0,68.0,-100.00,East,85,7.0,10.0,94,0.00,,,-99.99,,2013-07-14 03:43:00,
2013-07-13 23:53:00,69.0,68.0,-100.00,East,85,7.0,9.0,94,0.00,,,-99.99,,2013-07-14 03:53:00,